Greggton, Texas
Current Conditions -  °F | °C
As of 12:04 AM on Sunday 21 Dec 2014 (Local Time) from KGGG Reporting Station
Moderate Fog Moderate Fog  
Wind Chill: 39°   Ceiling: 100
Heat Index: 39°   Visibility: 0.25mi
Dew Point: 37°   Wind: 0mph
Humidity: 93%   Direction: NA
Pressure: 30.19"   Gusts: NA
Location:  32.5893°N, 94.7503°W
Report Text: KGGG 210604Z AUTO 00000KT 1/4SM R13/1400V2000FT FG VV001 04/03 A3019 RMK AO2 T00390028
Loading
Personal Weather Stations






























Interactive Weather Map New forecast layout! Learn more

10-Day Weather Forecast

Advertisements
Track Severe Weather on mobile